This is the latest recevied weather packets stored in our database for station/object KO4IEJ-15. If no packets are shown the sender has not sent any weather packets the latest 10 day(s).
| Time | Temp. | Humidity | Pressure | Rain* | Wind** | Luminosity | Snow |
|---|---|---|---|---|---|---|---|
| 1777718731 | 21.11° C | 96% | 1008.7 hPa | 0 mm | - | - | - |
| 1777717829 | 21.11° C | 96% | 1008.6 hPa | 0 mm | - | - | - |
| 1777711544 | 21.67° C | 94% | 1010 hPa | 0 mm | - | - | - |
| 1777710638 | 21.67° C | 93% | 1010 hPa | 0 mm | - | - | - |
| 1777706134 | 22.22° C | 90% | 1009.7 hPa | 0 mm | - | - | - |
| 1777701631 | 22.78° C | 87% | 1010.3 hPa | 0 mm | - | - | - |
| 1777696240 | 23.33° C | 90% | 1010.2 hPa | 0 mm | - | - | - |
| 1777685433 | 26.11° C | 82% | 1010.4 hPa | 0 mm | - | - | - |
| 1777681832 | 27.22° C | 78% | 1009.7 hPa | 0 mm | - | - | - |
| 1777677332 | 31.11° C | 55% | 1008.5 hPa | 0 mm | - | - | - |
| 1777671930 | 32.22° C | 52% | 1008 hPa | 0 mm | - | - | - |
| 1777668335 | 32.22° C | 54% | 1008.3 hPa | 0 mm | - | - | - |
| 1777664730 | 31.67° C | 59% | 1008.9 hPa | 0 mm | - | - | - |
| 1777662932 | 31.67° C | 55% | 1009.5 hPa | 0 mm | - | - | - |
| 1777661133 | 31.67° C | 55% | 1010.1 hPa | 0 mm | - | - | - |
| 1777660232 | 31.11° C | 56% | 1010.4 hPa | 0 mm | - | - | - |
| 1777655732 | 30° C | 58% | 1011.1 hPa | 0 mm | - | - | - |
| 1777648532 | 28.33° C | 73% | 1011.8 hPa | 0 mm | - | - | - |
| 1777646733 | 27.78° C | 72% | 1011.9 hPa | 0 mm | - | - | - |
| 1777642236 | 26.11° C | 82% | 1011.9 hPa | 0 mm | - | - | - |
| 1777638635 | 23.89° C | 93% | 1011.6 hPa | 0 mm | - | - | - |
| 1777635035 | 22.78° C | 95% | 1011.2 hPa | 0 mm | - | - | - |
| 1777633230 | 22.78° C | 95% | 1010.8 hPa | 0 mm | - | - | - |
| 1777630532 | 22.22° C | 94% | 1010.7 hPa | 0 mm | - | - | - |
| 1777629632 | 22.22° C | 94% | 1010.3 hPa | 0 mm | - | - | - |
* Rain latest hour (hover to see other rain measurements)
** Current wind speed in m/s (hover to see current wind gust speed)